Tiempo atmosférico en la estación meteorológica de Beasain, Gipuzkoa (245 m.)



Fecha
DESCASC
Temp. máxima en grados centígrados (hora)
DESCASC
Temp. mínima en grados centígrados (hora)
DESCASC
Temp. media en grados centígrados
DESCASC
Racha de viento máxima en m/sg (hora)
DESCASC
Velocidad máxima media en intervalos de 10 minutos(hora)
DESCASC
Precipitaciones diarias en mm
DESCASC
Precipitaciones de 00:00 a 06:00 en mm
DESCASC
Precipitaciones de 06:00 a 12:00 en mm
DESCASC
Precipitaciones de 12:00 a 18:00 en mm
DESCASC
Precipitaciones de 18:00 a 24:00 en mm
DESCASC
05-04-2020 20.6 (16:20) 12 (06:40) 16.3 15.83 (00:20) 9.44 (00:20) 0 0 0 0 0
04-04-2020 21 (17:20) 0.6 (06:50) 10.8 13.61 (23:59) 8.33 (23:59) 0 0 0 0 0
03-04-2020 15.7 (17:00) 1.5 (07:50) 8.6 5.83 (20:10) 3.33 (20:10) 0 0 0 0 0
02-04-2020 15.8 (15:40) 6.1 (00:00) 11 8.33 (13:40) 4.17 (14:10) 0.6 0.6 0 0 0
01-04-2020 14 (17:40) 6.1 (00:00) 10 10.56 (14:00) 6.11 (14:20) 0.8 0 0 0 0.8
31-03-2020 7.2 (16:30) 0.5 (00:00) 3.8 2.22 (12:30) 1.39 (02:40) 2.2 0 1.4 0.8 0
30-03-2020 6.4 (16:10) 1.3 (00:00) 3.9 7.5 (00:20) 3.61 (14:20) 4.6 0.6 2.6 1 0.4
29-03-2020 14.3 (14:40) 0.9 (00:00) 7.6 7.78 (14:50) 3.61 (17:00) 0.8 0 0 0.2 0.6
28-03-2020 16.6 (13:10) 0.6 (00:00) 8.6 7.22 (14:40) 3.89 (14:40) 0 0 0 0 0
27-03-2020 14.9 (15:30) -1.1 (-00:0) 6.9 7.78 (16:40) 4.17 (16:10) 0 0 0 0 0
26-03-2020 11.1 (15:20) 2.6 (00:00) 6.9 12.5 (13:00) 5.83 (13:30) 0.2 0 0.2 0 0
25-03-2020 17 (14:20) 4 (00:00) 10.5 8.33 (15:50) 5 (17:20) 0 0 0 0 0
24-03-2020 19.6 (13:30) 7.5 (00:00) 13.6 9.72 (15:40) 4.17 (15:40) 0 0 0 0 0
23-03-2020 16.3 (14:40) 9 (00:00) 12.6 6.67 (17:50) 3.89 (18:00) 0.6 0 0 0 0.6
22-03-2020 18.3 (13:20) 4.3 (07:50) 11.3 9.72 (15:20) 6.11 (16:50) 0 0 0 0 0
21-03-2020 18.9 (14:40) 7.9 (00:00) 13.4 11.67 (11:40) 6.11 (12:50) 0 0 0 0 0
20-03-2020 17.2 (15:00) 12.2 (00:00) 14.7 15.56 (11:10) 8.33 (13:20) 0 0 0 0 0
19-03-2020 20 (14:30) 10 (00:00) 15 10 (17:40) 5.56 (17:00) 0 0 0 0 0
18-03-2020 20.8 (15:20) 8 (00:00) 14.4 3.89 (15:20) 1.94 (15:30) 0 0 0 0 0
17-03-2020 12.2 (17:30) 8.5 (00:00) 10.3 2.22 (14:10) 1.39 (10:30) 1.2 1 0.2 0 0
16-03-2020 8.9 (16:30) 5.8 (00:00) 7.3 3.89 (05:00) 2.22 (05:00) 42.8 12.4 20 8.4 2
15-03-2020 21.9 (15:20) 1.3 (00:00) 11.6 10.83 (12:10) 5.83 (11:40) 17.6 0 0 0 17.6
14-03-2020 15.8 (16:50) 1.6 (00:00) 8.7 6.67 (12:50) 3.61 (12:50) 0 0 0 0 0
13-03-2020 12.2 (17:00) 6.2 (23:50) 9.2 7.5 (15:20) 4.44 (16:40) 0 0 0 0 0
12-03-2020 13.4 (12:50) 9.6 (00:00) 11.5 6.11 (16:20) 3.06 (16:20) 0.2 0 0 0 0.2
11-03-2020 23.2 (16:40) 5 (00:00) 14.1 5.28 (15:40) 3.61 (15:50) 0 0 0 0 0
10-03-2020 18.2 (15:00) 4.2 (00:00) 11.2 7.78 (16:40) 4.44 (16:00) 0 0 0 0 0

Gráficas

Temp. máximas Temp. mínimas Temp. medias Precipitaciones Rachas de viento máximas Velocidades máximas media en intervalos de 10 minutos

Datos horarios

Fecha y hora oficial Temperatura (ºC) Velocidad del viento (km/h) Dirección del viento Racha (km/h) Dirección de racha Precipitación (mm) Presión (hPa) Tendencia (hPa) Humedad (%)
2020-04-08 23:00:00 14.2 4 Norte 6 Norte 0 -- -- 82
2020-04-08 22:00:00 15.7 3 Norte 8 Nordeste 0 -- -- 76
2020-04-08 21:00:00 17.6 4 Nordeste 9 Norte 0 -- -- 69
2020-04-08 20:00:00 19.7 3 Norte 11 Norte 0 -- -- 63
2020-04-08 19:00:00 23.5 4 Nordeste 18 Sur 0 -- -- 47
2020-04-08 18:00:00 23.7 9 Sudoeste 17 Sur 0 -- -- 45
2020-04-08 17:00:00 23.4 5 Sudeste 17 Sur 0 -- -- 45
2020-04-08 16:00:00 22.8 5 Sudeste 24 Sur 0 -- -- 46
2020-04-08 15:00:00 22.6 8 Sudoeste 21 Sur 0 -- -- 46
2020-04-08 14:00:00 21.6 9 Sudoeste 26 Sur 0 -- -- 48
2020-04-08 13:00:00 20.7 12 Sudoeste 23 Sudoeste 0 -- -- 53
2020-04-08 12:00:00 19.2 8 Sur 22 Sudoeste 0 -- -- 51
2020-04-08 11:00:00 17.7 8 Sudoeste 17 Sur 0 -- -- 56
2020-04-08 10:00:00 15.3 5 Sudoeste 12 Sur 0 -- -- 66
2020-04-08 09:00:00 11.2 3 Norte 7 Nordeste 0 -- -- 87
2020-04-08 08:00:00 10.4 3 Norte 6 Nordeste 0 -- -- 89
2020-04-08 07:00:00 11.6 3 Norte 8 Noroeste 0 -- -- 84
2020-04-08 06:00:00 13.1 2 Sur 26 Sudeste 0 -- -- 77
2020-04-08 05:00:00 14.1 5 Sudoeste 23 Sur 0 -- -- 74
2020-04-08 04:00:00 14 4 Sudoeste 17 Sur 0 -- -- 75
2020-04-08 03:00:00 14 4 Sudoeste 22 Sur 0 -- -- 77
2020-04-08 02:00:00 14.1 8 Sur 24 Sudoeste 0 -- -- 78
2020-04-08 01:00:00 13.3 5 Sur 15 Sur 0 -- -- 83
2020-04-08 00:00:00 13.3 6 Sur 20 Sur 0 -- -- 83
2020-04-07 23:00:00 13.7 4 Sur 17 Sudoeste 0 -- -- 81
2020-04-07 22:00:00 13.2 2 Este 9 Norte 0 -- -- 83
2020-04-07 21:00:00 14.2 3 Sudoeste 13 Sudoeste 0 -- -- 78
2020-04-07 20:00:00 15.7 8 Sur 28 Sur 0 -- -- 74
2020-04-07 19:00:00 16.7 14 Sur 26 Sur 0 -- -- 69
2020-04-07 18:00:00 17.4 12 Sudoeste 27 Sur 0 -- -- 68
2020-04-07 17:00:00 16.9 14 Sur 33 Sur 0 -- -- 68
2020-04-07 16:00:00 18.2 18 Sudoeste 36 Sudoeste 0 -- -- 63
2020-04-07 15:00:00 18.2 13 Sudoeste 39 Sur 0 -- -- 64
2020-04-07 14:00:00 16.7 10 Sudoeste 32 Sudoeste 0 -- -- 68
2020-04-07 13:00:00 14.6 11 Sudoeste 22 Sur 0 -- -- 76
2020-04-07 12:00:00 12.9 4 Sudeste 13 Sur 0.8 -- -- 84
2020-04-07 11:00:00 12.8 5 Sudeste 21 Sudoeste 0.4 -- -- 87
2020-04-07 10:00:00 12.9 3 Sur 13 Sudoeste 0 -- -- 87
2020-04-07 09:00:00 11.6 6 Sur 15 Sudoeste 0 -- -- 98
2020-04-07 08:00:00 10.5 2 Sudeste 9 Norte 0 -- -- 100
2020-04-07 07:00:00 10.2 4 Norte 14 Nordeste 0 -- -- 100
2020-04-07 06:00:00 10.5 5 Norte 7 Nordeste 0 -- -- 100
2020-04-07 05:00:00 10.8 0 Calma 7 Norte 0 -- -- 100
2020-04-07 04:00:00 10.8 2 Norte 5 Noroeste 0 -- -- 100
2020-04-07 03:00:00 11.2 2 Norte 6 Norte 0 -- -- 100
2020-04-07 02:00:00 11.4 3 Norte 5 Norte 0 -- -- 100
2020-04-07 01:00:00 11.5 0 Calma 4 Oeste 0 -- -- 100
2020-04-07 00:00:00 11.4 0 Calma 4 Norte 0 -- -- 99
2020-04-06 23:00:00 11.6 3 Norte 6 Norte 0.2 -- -- 99
2020-04-06 22:00:00 12.1 0 Calma 5 Oeste 0.6 -- -- 99
2020-04-06 21:00:00 12.1 4 Sudoeste 7 Sudoeste 1.4 -- -- 98
2020-04-06 20:00:00 12.4 3 Sur 5 Sudeste 1.4 -- -- 96
2020-04-06 19:00:00 12.7 0 Calma 4 Sur 4 -- -- 95
2020-04-06 18:00:00 13.8 0 Calma 22 Nordeste 0.6 -- -- 85
2020-04-06 17:00:00 14.6 10 Norte 23 Norte 0 -- -- 77
2020-04-06 16:00:00 18.3 6 Sur 22 Sudoeste 0 -- -- 53
2020-04-06 15:00:00 17.4 11 Sur 28 Sur 0 -- -- 55
2020-04-06 14:00:00 17.3 14 Sur 31 Sur 0 -- -- 51
2020-04-06 13:00:00 16.8 11 Sudoeste 23 Sur 0 -- -- 54
2020-04-06 12:00:00 15.4 5 Sudoeste 19 Sudoeste 0.2 -- -- 59
2020-04-06 11:00:00 14 2 Noroeste 33 Sur 0.2 -- -- 69
2020-04-06 10:00:00 14.3 9 Sudoeste 31 Sur 0 -- -- 61
2020-04-06 09:00:00 13.9 14 Sur 24 Sudoeste 0 -- -- 59
2020-04-06 08:00:00 13.5 4 Sudoeste 36 Sur 0 -- -- 59
2020-04-06 07:00:00 13.7 15 Sur 38 Sur 0 -- -- 58
2020-04-06 06:00:00 13.7 3 Sur 15 Oeste 0 -- -- 62
2020-04-06 05:00:00 13.9 6 Sudoeste 31 Sur 0 -- -- 63
2020-04-06 04:00:00 14.5 15 Sudoeste 30 Sudoeste 0 -- -- 62
2020-04-06 03:00:00 15.1 12 Sudoeste 24 Sudoeste 0 -- -- 60
2020-04-06 02:00:00 14.8 6 Sudoeste 22 Oeste 0 -- -- 65
2020-04-06 01:00:00 14.5 6 Sudoeste 32 Sudoeste 0.6 -- -- 72
2020-04-06 00:00:00 15.7 18 Sur 35 Sudeste 0 -- -- 64
2020-04-05 23:00:00 16.6 16 Sudoeste 30 Sudoeste 0 -- -- 54
2020-04-05 22:00:00 16.3 10 Sudoeste 29 Oeste 0 -- -- 59
2020-04-05 21:00:00 16.9 10 Sudoeste 33 Sudoeste 0 -- -- 55
2020-04-05 20:00:00 18.1 14 Sur 43 Sudoeste 0 -- -- 51
2020-04-05 19:00:00 18.5 14 Sudoeste 31 Sudoeste 0 -- -- 50
2020-04-05 18:00:00 19.6 21 Sur 39 Sudoeste 0 -- -- 47
2020-04-05 17:00:00 20.2 11 Sudoeste 51 Sudoeste 0 -- -- 47
2020-04-05 16:00:00 20.3 19 Sudoeste 46 Sur 0 -- -- 48
2020-04-05 15:00:00 19.3 20 Sur 45 Sur 0 -- -- 47
2020-04-05 14:00:00 19 21 Sudoeste 46 Sur 0 -- -- 44
2020-04-05 13:00:00 17 25 Sur 48 Sur 0 -- -- 49
2020-04-05 12:00:00 14.7 19 Sudoeste 49 Sur 0 -- -- 52
2020-04-05 11:00:00 14.3 16 Sudoeste 31 Sudoeste 0 -- -- 53
2020-04-05 10:00:00 12.9 15 Sudoeste 35 Sudoeste 0 -- -- 55
2020-04-05 09:00:00 12.2 10 Sudoeste 38 Sur 0 -- -- 57
2020-04-05 08:00:00 12 15 Sudoeste 44 Sudoeste 0 -- -- 58
2020-04-05 07:00:00 12.1 12 Sudoeste 37 Sur 0 -- -- 57
2020-04-05 06:00:00 12.4 21 Sur 42 Sur 0 -- -- 57
2020-04-05 05:00:00 12.7 18 Sudoeste 43 Sudoeste 0 -- -- 58
2020-04-05 04:00:00 13.3 18 Sudoeste 44 Sur 0 -- -- 57
2020-04-05 03:00:00 14 21 Sur 47 Sur 0 -- -- 55
2020-04-05 02:00:00 14.8 21 Sur 51 Sur 0 -- -- 51
2020-04-05 01:00:00 15.4 30 Sur 57 Sur 0 -- -- 50
2020-04-05 00:00:00 15.8 30 Sur 49 Sur 0 -- -- 52
2020-04-04 23:00:00 16.4 19 Sudoeste 40 Sur 0 -- -- 47
2020-04-04 22:00:00 16.6 11 Sudoeste 33 Sur 0 -- -- 47
2020-04-04 21:00:00 17.2 16 Sudoeste 45 Sur 0 -- -- 46
2020-04-04 20:00:00 18.4 22 Sur 41 Sur 0 -- -- 42
2020-04-04 19:00:00 19.8 21 Sur 45 Sur 0 -- -- 37
2020-04-04 18:00:00 20.7 18 Sudoeste 46 Sur 0 -- -- 32
2020-04-04 17:00:00 20.3 25 Sur 43 Sur 0 -- -- 31
2020-04-04 16:00:00 20.3 20 Sur 42 Sur 0 -- -- 34
2020-04-04 15:00:00 19.8 19 Sur 42 Sudoeste 0 -- -- 33
2020-04-04 14:00:00 19.2 20 Sudoeste 41 Sur 0 -- -- 39
2020-04-04 13:00:00 18 23 Sur 36 Sur 0 -- -- 44
2020-04-04 12:00:00 17.2 18 Sur 35 Sudoeste 0 -- -- 45
2020-04-04 11:00:00 15.3 11 Sudoeste 23 Sudoeste 0 -- -- 57
2020-04-04 10:00:00 7.9 5 Sur 16 Sur 0 -- -- 93
2020-04-04 09:00:00 2.4 3 Norte 8 Norte 0 -- -- 100
2020-04-04 08:00:00 0.7 3 Sudoeste 8 Sudoeste 0 -- -- 100
2020-04-04 07:00:00 0.6 2 Norte 7 Sur 0 -- -- 100
2020-04-04 06:00:00 1 2 Este 8 Sudeste 0 -- -- 100
2020-04-04 05:00:00 1.1 3 Sudeste 8 Sur 0 -- -- 99
2020-04-04 04:00:00 1.6 0 Calma 4 Sur 0 -- -- 99
2020-04-04 03:00:00 2.1 3 Sudeste 5 Sur 0 -- -- 98
2020-04-04 02:00:00 2.8 0 Calma 4 Nordeste 0 -- -- 96
2020-04-04 01:00:00 3.6 0 Calma 4 Norte 0 -- -- 94
2020-04-04 00:00:00 4.4 0 Calma 5 Norte 0 -- -- 91
2020-04-03 23:00:00 5.5 2 Norte 4 Nordeste 0 -- -- 88
2020-04-03 22:00:00 6.9 4 Nordeste 7 Norte 0 -- -- 81
2020-04-03 21:00:00 8.8 4 Norte 21 Nordeste 0 -- -- 73
2020-04-03 20:00:00 10.9 9 Norte 18 Norte 0 -- -- 65
2020-04-03 19:00:00 13.8 6 Norte 18 Nordeste 0 -- -- 56
2020-04-03 18:00:00 14.6 6 Norte 18 Este 0 -- -- 55
2020-04-03 17:00:00 15.7 5 Noroeste 16 Sur 0 -- -- 49
2020-04-03 16:00:00 14.8 8 Oeste 16 Oeste 0 -- -- 52
2020-04-03 15:00:00 12.8 3 Norte 13 Norte 0 -- -- 62
2020-04-03 14:00:00 11.7 5 Noroeste 20 Nordeste 0 -- -- 59
2020-04-03 13:00:00 10.2 5 Norte 17 Norte 0 -- -- 67
2020-04-03 12:00:00 7.9 3 Sudeste 8 Sur 0 -- -- 80
2020-04-03 11:00:00 5.5 2 Noroeste 4 Noroeste 0 -- -- 99
2020-04-03 10:00:00 3.1 0 Calma 8 Sur 0 -- -- 100
2020-04-03 09:00:00 2 4 Sur 5 Sur 0 -- -- 100
2020-04-03 08:00:00 1.5 4 Norte 4 Norte 0 -- -- 99
2020-04-03 07:00:00 2 0 Calma 4 Sudeste 0 -- -- 99
2020-04-03 06:00:00 2.6 0 Calma 5 Sur 0 -- -- 98
2020-04-03 05:00:00 3.4 0 Calma 4 Sudeste 0 -- -- 96
2020-04-03 04:00:00 3.8 3 Sudeste 4 Sudeste 0 -- -- 95
2020-04-03 03:00:00 4.5 2 Norte 5 Noroeste 0 -- -- 94
2020-04-03 02:00:00 5.1 3 Norte 5 Norte 0 -- -- 93
2020-04-03 01:00:00 5.6 0 Calma 5 Sudeste 0 -- -- 91
2020-04-03 00:00:00 6.1 0 Calma 5 Noroeste 0 -- -- 89
2020-04-02 23:00:00 7.1 0 Calma 7 Nordeste 0 -- -- 84
2020-04-02 22:00:00 8.2 2 Norte 12 Nordeste 0 -- -- 82
2020-04-02 21:00:00 9.4 7 Nordeste 19 Nordeste 0 -- -- 75
2020-04-02 20:00:00 10.7 8 Nordeste 22 Nordeste 0 -- -- 70
2020-04-02 19:00:00 12.2 11 Nordeste 29 Norte 0 -- -- 68
2020-04-02 18:00:00 13.5 10 Nordeste 24 Nordeste 0 -- -- 67
2020-04-02 17:00:00 14.2 10 Norte 26 Norte 0 -- -- 64
2020-04-02 16:00:00 15.4 10 Norte 30 Norte 0 -- -- 64
2020-04-02 15:00:00 14.7 13 Nordeste 29 Norte 0 -- -- 65
2020-04-02 14:00:00 14.6 9 Norte 30 Norte 0 -- -- 69
2020-04-02 13:00:00 13.1 14 Norte 27 Nordeste 0 -- -- 75
2020-04-02 12:00:00 11.6 9 Norte 18 Norte 0 -- -- 86
2020-04-02 11:00:00 9.2 2 Sudoeste 5 Noroeste 0 -- -- 100
2020-04-02 10:00:00 8.2 0 Calma 4 Sudoeste 0 -- -- 100
2020-04-02 09:00:00 7.6 0 Calma 4 Norte 0 -- -- 100
2020-04-02 08:00:00 7.6 0 Calma 5 Nordeste 0 -- -- 100
2020-04-02 07:00:00 7.9 0 Calma 8 Nordeste 0 -- -- 100
2020-04-02 06:00:00 8.3 3 Norte 5 Nordeste 0 -- -- 100
2020-04-02 05:00:00 8.6 0 Calma 5 Sudeste 0 -- -- 100
2020-04-02 04:00:00 8.7 0 Calma 5 Sur 0 -- -- 100
2020-04-02 03:00:00 8.7 0 Calma 5 Norte 0 -- -- 100
2020-04-02 02:00:00 8.9 0 Calma 3 Nordeste 0 -- -- 100
2020-04-02 01:00:00 8.9 3 Nordeste 4 Nordeste 0.6 -- -- 100
2020-04-02 00:00:00 9.1 3 Norte 6 Norte 0.4 -- -- 98
2020-04-01 23:00:00 9.4 4 Norte 5 Norte 0 -- -- 95
2020-04-01 22:00:00 9.7 0 Calma 7 Norte 0 -- -- 93
2020-04-01 21:00:00 9.9 5 Norte 8 Nordeste 0 -- -- 92
2020-04-01 20:00:00 10.9 3 Nordeste 6 Norte 0 -- -- 90
2020-04-01 19:00:00 11.7 2 Nordeste 19 Sudoeste 0.4 -- -- 89
2020-04-01 18:00:00 13.4 9 Sudoeste 23 Sudoeste 0 -- -- 67
2020-04-01 17:00:00 13.3 10 Sudoeste 24 Sudoeste 0 -- -- 67
2020-04-01 16:00:00 13.6 10 Sudoeste 33 Sudoeste 0 -- -- 68
2020-04-01 15:00:00 13.7 17 Sur 37 Sur 0 -- -- 63
2020-04-01 14:00:00 13.4 18 Sur 38 Sur 0 -- -- 62
2020-04-01 13:00:00 13.2 9 Sudoeste 36 Sur 0 -- -- 69
2020-04-01 12:00:00 13 8 Sudoeste 31 Sudoeste 0 -- -- 69
2020-04-01 11:00:00 13.1 12 Sudoeste 27 Sur 0 -- -- 69
2020-04-01 10:00:00 10.1 3 Norte 7 Norte 0 -- -- 91
2020-04-01 09:00:00 9 3 Norte 9 Sudeste 0 -- -- 93
2020-04-01 08:00:00 9.2 4 Este 9 Sudeste 0 -- -- 89
2020-04-01 07:00:00 9.8 3 Sur 17 Sur 0 -- -- 86
2020-04-01 06:00:00 9.6 5 Sudoeste 21 Sudoeste 0 -- -- 85
2020-04-01 05:00:00 8.4 3 Norte 10 Sur 0 -- -- 96
2020-04-01 04:00:00 6.9 2 Nordeste 5 Oeste 0 -- -- 100
2020-04-01 03:00:00 6.4 3 Sur 13 Sudoeste 0 -- -- 100
2020-04-01 02:00:00 6.4 3 Sudeste 12 Sudeste 0 -- -- 100
2020-04-01 01:00:00 6.1 3 Este 8 Norte 0 -- -- 100
2020-04-01 00:00:00 6.3 2 Oeste 6 Nordeste 0 -- -- 100
2020-03-31 23:00:00 6.6 3 Norte 7 Noroeste 0 -- -- 100
2020-03-31 22:00:00 6.7 0 Calma 6 Este 0 -- -- 99
2020-03-31 21:00:00 6.7 3 Sudeste 6 Sur 0 -- -- 98
2020-03-31 20:00:00 7 2 Sur 6 Sur 0 -- -- 97
2020-03-31 19:00:00 7 3 Sur 6 Sur 0 -- -- 96
2020-03-31 18:00:00 7 3 Sudoeste 7 Sur 0 -- -- 96
2020-03-31 17:00:00 7.1 3 Sur 8 Sur 0.2 -- -- 94
2020-03-31 16:00:00 6.9 0 Calma 6 Sudoeste 0.2 -- -- 93
2020-03-31 15:00:00 6.4 2 Oeste 8 Sudoeste 0 -- -- 93
2020-03-31 14:00:00 6.1 3 Oeste 6 Oeste 0.2 -- -- 91
2020-03-31 13:00:00 4.4 3 Sudoeste 8 Sur 0.2 -- -- 95
2020-03-31 12:00:00 3.3 0 Calma 4 Noroeste 0.2 -- -- 96
2020-03-31 11:00:00 2.6 0 Calma 5 Norte 0 -- -- 100
2020-03-31 10:00:00 1.5 0 Calma 4 Noroeste 0.2 -- -- 100
2020-03-31 09:00:00 0.9 0 Calma 3 Sudoeste 0 -- -- 100
2020-03-31 08:00:00 0.5 2 Nordeste 5 Sudeste 0.2 -- -- 100
2020-03-31 07:00:00 0.6 4 Sur 6 Sur 0.8 -- -- 100
2020-03-31 06:00:00 1.1 0 Calma 3 Norte 0 -- -- 100
2020-03-31 05:00:00 0.9 0 Calma 5 Sur 0 -- -- 100
2020-03-31 04:00:00 0.8 2 Sur 4 Sudoeste 0 -- -- 100
2020-03-31 03:00:00 0.7 2 Sur 7 Sur 0 -- -- 100
2020-03-31 02:00:00 1 2 Nordeste 7 Norte 0 -- -- 100
2020-03-31 01:00:00 1.3 3 Nordeste 8 Sudeste 0 -- -- 100
2020-03-31 00:00:00 1.3 2 Sur 7 Norte 0 -- -- 99
2020-03-30 23:00:00 1.7 4 Nordeste 6 Nordeste 0 -- -- 99
2020-03-30 22:00:00 2.6 0 Calma 7 Nordeste 0 -- -- 98
2020-03-30 21:00:00 2.6 3 Norte 8 Norte 0 -- -- 97
2020-03-30 20:00:00 2.9 5 Norte 18 Norte 0.4 -- -- 93
2020-03-30 19:00:00 4.4 12 Norte 19 Norte 0 -- -- 82
2020-03-30 18:00:00 4.9 10 Norte 23 Noroeste 0 -- -- 79
2020-03-30 17:00:00 5.3 12 Norte 26 Nordeste 0 -- -- 77
2020-03-30 16:00:00 5.7 6 Norte 14 Noroeste 0 -- -- 74
2020-03-30 15:00:00 5.1 8 Nordeste 24 Norte 0 -- -- 75
2020-03-30 14:00:00 5.2 12 Norte 23 Norte 0.2 -- -- 86
2020-03-30 13:00:00 3.1 9 Nordeste 21 Nordeste 0.8 -- -- 91
2020-03-30 12:00:00 2.9 9 Norte 21 Norte 0.6 -- -- 92
2020-03-30 11:00:00 2.7 4 Sudoeste 18 Sur 0.4 -- -- 97
2020-03-30 10:00:00 2.1 4 Sudeste 9 Sudeste 0.6 -- -- 98
2020-03-30 09:00:00 1.8 6 Sudeste 15 Nordeste 0.2 -- -- 97
2020-03-30 08:00:00 1.5 4 Norte 13 Nordeste 0.6 -- -- 98
2020-03-30 07:00:00 2 5 Sur 9 Sur 0.2 -- -- 97
2020-03-30 06:00:00 2.4 2 Norte 6 Nordeste 0.4 -- -- 97
2020-03-30 05:00:00 2.4 4 Nordeste 11 Norte 0 -- -- 96
2020-03-30 04:00:00 3 0 Calma 9 Norte 0 -- -- 93
2020-03-30 03:00:00 3.6 4 Norte 9 Norte 0 -- -- 91
2020-03-30 02:00:00 4.2 3 Sur 9 Norte 0.2 -- -- 94
2020-03-30 01:00:00 4.6 3 Norte 27 Norte 0 -- -- 92
2020-03-30 00:00:00 5.1 8 Norte 27 Nordeste 0.2 -- -- 93
2020-03-29 23:00:00 6 7 Norte 22 Nordeste 0.4 -- -- 93
2020-03-29 22:00:00 6.7 8 Norte 23 Norte 0 -- -- 92
2020-03-29 21:00:00 7.5 10 Norte 23 Nordeste 0 -- -- 91
2020-03-29 20:00:00 8 8 Nordeste 20 Norte 0 -- -- 92
2020-03-29 19:00:00 8.3 8 Norte 18 Nordeste 0 -- -- 90
2020-03-29 18:00:00 8.5 12 Nordeste 26 Nordeste 0 -- -- 90
2020-03-29 17:00:00 8.8 13 Nordeste 23 Norte 0.2 -- -- 92
2020-03-29 16:00:00 10.8 12 Norte 23 Norte 0 -- -- 74
2020-03-29 15:00:00 12.7 13 Nordeste 28 Norte 0 -- -- 61
2020-03-29 14:00:00 13.2 9 Norte 22 Norte 0 -- -- 60
2020-03-29 13:00:00 11.9 10 Norte 24 Nordeste 0 -- -- 65
2020-03-29 12:00:00 12 8 Nordeste 19 Nordeste 0 -- -- 63
2020-03-29 11:00:00 8.2 4 Sur 6 Sudoeste 0 -- -- 81
2020-03-29 10:00:00 3.3 3 Sur 6 Sur 0 -- -- 98
2020-03-29 09:00:00 1.1 0 Calma 3 Este 0 -- -- 99
2020-03-29 08:00:00 0.9 0 Calma 3 Sur 0 -- -- 99
2020-03-29 07:00:00 1.3 0 Calma 3 Nordeste 0 -- -- 98
2020-03-29 06:00:00 1.5 0 Calma 6 Sudeste 0 -- -- 97
2020-03-29 05:00:00 2.1 0 Calma 3 Norte 0 -- -- 96
2020-03-29 03:00:00 3.2 0 Calma 3 Norte 0 -- -- 92
2020-03-29 01:00:00 3.9 0 Calma 5 Sudeste 0 -- -- 89
2020-03-29 00:00:00 4.6 3 Sur 6 Norte 0 -- -- 86
2020-03-28 23:00:00 5.7 3 Norte 5 Norte 0 -- -- 81
2020-03-28 22:00:00 7.2 3 Nordeste 9 Norte 0 -- -- 74
2020-03-28 21:00:00 8.8 5 Norte 10 Nordeste 0 -- -- 68
2020-03-28 20:00:00 10.5 8 Nordeste 21 Norte 0 -- -- 67
2020-03-28 19:00:00 12.1 12 Nordeste 23 Nordeste 0 -- -- 59
2020-03-28 18:00:00 14.7 13 Norte 25 Norte 0 -- -- 52
2020-03-28 17:00:00 15.7 11 Norte 25 Norte 0 -- -- 50
2020-03-28 16:00:00 15.2 12 Norte 25 Norte 0 -- -- 51
2020-03-28 15:00:00 15.9 9 Norte 26 Norte 0 -- -- 51
2020-03-28 14:00:00 16 11 Norte 23 Norte 0 -- -- 51
2020-03-28 13:00:00 16.5 9 Sudoeste 15 Sur 0 -- -- 43
2020-03-28 12:00:00 14.8 7 Sur 14 Sudoeste 0 -- -- 48
2020-03-28 11:00:00 11.8 5 Sur 9 Sur 0 -- -- 64
2020-03-28 10:00:00 8.3 4 Sudoeste 8 Sudoeste 0 -- -- 78
2020-03-28 09:00:00 4.3 0 Calma 3 Sudeste 0 -- -- 100
2020-03-28 08:00:00 0.9 0 Calma -- -- 0 -- -- 100
2020-03-28 07:00:00 0.6 0 Calma 4 Sudeste 0 -- -- 100
2020-03-28 06:00:00 0.9 0 Calma 6 Sur 0 -- -- 100
2020-03-28 05:00:00 1.1 6 Sur 8 Sur 0 -- -- 99
2020-03-28 04:00:00 1.6 2 Sudeste 6 Sur 0 -- -- 99
2020-03-28 03:00:00 2 0 Calma 6 Sur 0 -- -- 98
2020-03-28 02:00:00 2.6 0 Calma 4 Nordeste 0 -- -- 96
2020-03-28 01:00:00 3.1 0 Calma 3 Norte 0 -- -- 94
2020-03-28 00:00:00 3.8 0 Calma 5 Norte 0 -- -- 93
2020-03-27 23:00:00 4.6 0 Calma 5 Norte 0 -- -- 90
2020-03-27 22:00:00 5.5 3 Norte 8 Norte 0 -- -- 86
2020-03-27 21:00:00 6.6 4 Norte 8 Norte 0 -- -- 82
2020-03-27 20:00:00 7.8 5 Nordeste 16 Nordeste 0 -- -- 76
2020-03-27 19:00:00 9.7 9 Nordeste 21 Nordeste 0 -- -- 68
2020-03-27 18:00:00 11.7 11 Nordeste 26 Norte 0 -- -- 59
2020-03-27 17:00:00 13.7 10 Norte 28 Norte 0 -- -- 54
2020-03-27 16:00:00 13.5 15 Norte 26 Norte 0 -- -- 51
2020-03-27 15:00:00 14.8 13 Norte 25 Norte 0 -- -- 48
2020-03-27 14:00:00 14.2 12 Norte 21 Norte 0 -- -- 53
2020-03-27 13:00:00 13.6 5 Noroeste 14 Sur 0 -- -- 49
2020-03-27 12:00:00 12.2 6 Sudoeste 17 Sur 0 -- -- 54
2020-03-27 11:00:00 10.2 6 Sur 11 Sudoeste 0 -- -- 60
2020-03-27 10:00:00 6.3 4 Sur 8 Sur 0 -- -- 76
2020-03-27 09:00:00 2.4 3 Sur 5 Sudoeste 0 -- -- 92
2020-03-27 08:00:00 -1 0 Calma 3 Sur 0 -- -- 99
2020-03-27 07:00:00 -1.1 3 Sudeste 5 Norte 0 -- -- 98
2020-03-27 06:00:00 -0.8 4 Sudeste 7 Sur 0 -- -- 97
2020-03-27 05:00:00 -0.4 0 Calma 5 Norte 0 -- -- 96
2020-03-27 04:00:00 0 0 Calma 8 Sudeste 0 -- -- 95
2020-03-27 03:00:00 0.6 3 Sudeste 6 Sur 0 -- -- 92
2020-03-27 02:00:00 1.3 2 Norte 4 Norte 0 -- -- 90
2020-03-27 01:00:00 1.9 2 Nordeste 6 Norte 0 -- -- 88
2020-03-27 00:00:00 2.6 2 Nordeste 5 Sudoeste 0 -- -- 85
2020-03-26 23:00:00 3.1 2 Norte 5 Nordeste 0 -- -- 82
2020-03-26 22:00:00 3.8 3 Norte 7 Norte 0 -- -- 78
2020-03-26 21:00:00 5.1 2 Nordeste 9 Norte 0 -- -- 70
2020-03-26 20:00:00 6.8 4 Nordeste 13 Nordeste 0 -- -- 64
2020-03-26 19:00:00 8.1 6 Nordeste 19 Nordeste 0 -- -- 60
2020-03-26 18:00:00 9.4 12 Norte 27 Nordeste 0 -- -- 53
2020-03-26 17:00:00 9.5 13 Nordeste 36 Nordeste 0 -- -- 54
2020-03-26 16:00:00 10.8 15 Norte 36 Norte 0 -- -- 46
2020-03-26 15:00:00 11 13 Nordeste 32 Nordeste 0 -- -- 48
2020-03-26 14:00:00 9.9 18 Nordeste 39 Nordeste 0 -- -- 49
2020-03-26 13:00:00 10.1 20 Nordeste 45 Nordeste 0 -- -- 54
2020-03-26 12:00:00 9.4 14 Norte 32 Nordeste 0 -- -- 60
2020-03-26 11:00:00 10.3 9 Nordeste 35 Este 0 -- -- 53
2020-03-26 10:00:00 9.2 12 Norte 32 Nordeste 0.2 -- -- 61
2020-03-26 09:00:00 9.1 13 Norte 26 Norte 0 -- -- 62
2020-03-26 08:00:00 8.7 10 Norte 20 Norte 0 -- -- 72
2020-03-26 07:00:00 8.2 6 Norte 23 Noroeste 0 -- -- 79
2020-03-26 06:00:00 7.9 9 Norte 19 Norte 0 -- -- 83
2020-03-26 05:00:00 7.8 9 Norte 21 Noroeste 0 -- -- 84
2020-03-26 04:00:00 7.5 8 Norte 25 Norte 0 -- -- 86
2020-03-26 03:00:00 8.1 10 Norte 25 Norte 0 -- -- 76
2020-03-26 02:00:00 8 14 Norte 31 Norte 0 -- -- 76
2020-03-26 01:00:00 7.8 20 Norte 28 Norte 0 -- -- 78
2020-03-26 00:00:00 7.8 15 Norte 27 Norte 0 -- -- 76
2020-03-25 23:00:00 6.5 4 Norte 6 Norte 0 -- -- 80
2020-03-25 22:00:00 6.3 3 Norte 10 Norte 0 -- -- 78
2020-03-25 21:00:00 7.4 6 Norte 15 Nordeste 0 -- -- 76
2020-03-25 20:00:00 8.2 9 Nordeste 16 Nordeste 0 -- -- 76
2020-03-25 19:00:00 10.1 10 Norte 24 Nordeste 0 -- -- 71
2020-03-25 18:00:00 13.1 14 Norte 30 Nordeste 0 -- -- 62
2020-03-25 17:00:00 16 11 Nordeste 29 Nordeste 0 -- -- 47
2020-03-25 16:00:00 16.7 15 Nordeste 30 Nordeste 0 -- -- 55
2020-03-25 15:00:00 16.7 12 Nordeste 28 Nordeste 0 -- -- 48
2020-03-25 14:00:00 16.4 10 Nordeste 30 Nordeste 0 -- -- 60
2020-03-25 13:00:00 16.2 7 Nordeste 21 Norte 0 -- -- 55
2020-03-25 12:00:00 15.4 5 Norte 15 Norte 0 -- -- 54
2020-03-25 11:00:00 14.4 4 Sudoeste 10 Sur 0 -- -- 68
2020-03-25 10:00:00 10.5 5 Sur 7 Sur 0 -- -- 85
2020-03-25 09:00:00 6.2 0 Calma 3 Sur 0 -- -- 100
2020-03-25 08:00:00 4.3 0 Calma 3 Norte 0 -- -- 100
2020-03-25 07:00:00 4.2 3 Sur 5 Sudeste 0 -- -- 100
2020-03-25 06:00:00 4.5 3 Sudeste 4 Sudeste 0 -- -- 100
2020-03-25 05:00:00 4.6 0 Calma 5 Norte 0 -- -- 100
2020-03-25 04:00:00 5.1 0 Calma 3 Nordeste 0 -- -- 99
2020-03-25 03:00:00 5.7 0 Calma 3 Sudeste 0 -- -- 98
2020-03-25 02:00:00 6.1 0 Calma 6 Norte 0 -- -- 97
2020-03-25 01:00:00 6.8 3 Sudeste 4 Sur 0 -- -- 96
2020-03-25 00:00:00 7.5 3 Norte 4 Norte 0 -- -- 94
2020-03-24 23:00:00 8.2 0 Calma 6 Norte 0 -- -- 91
2020-03-24 22:00:00 9.4 0 Calma 9 Norte 0 -- -- 86
2020-03-24 21:00:00 10.8 4 Norte 9 Norte 0 -- -- 80
2020-03-24 20:00:00 12.1 4 Norte 20 Nordeste 0 -- -- 74
2020-03-24 19:00:00 14.6 12 Nordeste 18 Norte 0 -- -- 62
2020-03-24 18:00:00 16.8 9 Norte 25 Norte 0 -- -- 59
2020-03-24 17:00:00 18.3 9 Norte 19 Norte 0 -- -- 57
2020-03-24 16:00:00 18.2 5 Norte 35 Norte 0 -- -- 57
2020-03-24 15:00:00 18.2 12 Norte 21 Norte 0 -- -- 59
2020-03-24 14:00:00 19.2 6 Norte 22 Sur 0 -- -- 51
2020-03-24 13:00:00 18.4 6 Oeste 15 Sur 0 -- -- 57
2020-03-24 12:00:00 16.4 5 Sudeste 13 Sudeste 0 -- -- 60
2020-03-24 11:00:00 14.9 4 Sur 9 Sudeste 0 -- -- 73
2020-03-24 10:00:00 11.1 3 Sur 6 Sur 0 -- -- 100
2020-03-24 09:00:00 8.8 4 Norte 6 Norte 0 -- -- 100
2020-03-24 08:00:00 8.3 2 Noroeste 4 Noroeste 0 -- -- 100
2020-03-24 07:00:00 8.4 0 Calma 4 Norte 0 -- -- 100
2020-03-24 06:00:00 8.1 2 Sur 6 Norte 0 -- -- 100
2020-03-24 05:00:00 8.2 2 Nordeste 5 Nordeste 0 -- -- 100
2020-03-24 04:00:00 8.5 3 Norte 9 Norte 0 -- -- 100
2020-03-24 03:00:00 9.1 4 Norte 8 Nordeste 0 -- -- 100
2020-03-24 02:00:00 9.5 4 Nordeste 6 Nordeste 0 -- -- 100
2020-03-24 01:00:00 9.9 0 Calma 5 Nordeste 0 -- -- 100
2020-03-24 00:00:00 9.9 0 Calma 4 Norte 0.2 -- -- 100
2020-03-23 23:00:00 10.2 2 Norte 6 Nordeste 0 -- -- 99
2020-03-23 22:00:00 10.4 0 Calma 5 Norte 0 -- -- 97
2020-03-23 21:00:00 11.3 3 Nordeste 5 Norte 0.4 -- -- 95
2020-03-23 20:00:00 12.3 3 Sudeste 16 Norte 0 -- -- 86
2020-03-23 19:00:00 12.7 4 Este 22 Norte 0 -- -- 82
2020-03-23 18:00:00 13.4 14 Nordeste 24 Nordeste 0 -- -- 79
2020-03-23 17:00:00 15 7 Norte 17 Nordeste 0 -- -- 77
2020-03-23 16:00:00 15.3 5 Norte 13 Norte 0 -- -- 71
2020-03-23 15:00:00 16.3 4 Norte 12 Sur 0 -- -- 64
2020-03-23 14:00:00 16.2 5 Oeste 14 Oeste 0 -- -- 62
2020-03-23 13:00:00 14.8 5 Noroeste 11 Norte 0 -- -- 69
2020-03-23 12:00:00 12.6 6 Norte 14 Nordeste 0 -- -- 81
2020-03-23 11:00:00 12.1 3 Noroeste 5 Sudoeste 0 -- -- 81
2020-03-23 10:00:00 11.2 0 Calma 3 Norte 0 -- -- 86
2020-03-23 09:00:00 9.8 3 Sur 5 Sudeste 0 -- -- 93
2020-03-23 08:00:00 9.3 4 Sur 5 Sur 0 -- -- 95
2020-03-23 07:00:00 9.1 2 Norte 7 Sur 0 -- -- 95
2020-03-23 06:00:00 9.3 2 Norte 5 Nordeste 0 -- -- 94
2020-03-23 05:00:00 9.3 0 Calma 4 Nordeste 0 -- -- 93
2020-03-23 04:00:00 9.2 2 Sur 5 Sudeste 0 -- -- 93
2020-03-23 03:00:00 9.1 0 Calma 6 Sudeste 0 -- -- 93
2020-03-23 02:00:00 9.3 3 Norte 4 Norte 0 -- -- 92
2020-03-23 01:00:00 9.3 2 Sudeste 6 Sur 0 -- -- 91
2020-03-23 00:00:00 9.5 3 Sudeste 10 Sudeste 0 -- -- 90
2020-03-22 23:00:00 9.1 0 Calma 8 Nordeste 0 -- -- 89
2020-03-22 22:00:00 9.8 5 Norte 8 Norte 0 -- -- 86
2020-03-22 21:00:00 11.7 0 Calma 9 Nordeste 0 -- -- 78
2020-03-22 20:00:00 12.3 4 Nordeste 19 Nordeste 0 -- -- 74
2020-03-22 19:00:00 12.4 9 Nordeste 17 Norte 0 -- -- 76
2020-03-22 18:00:00 13.3 9 Norte 31 Nordeste 0 -- -- 75
2020-03-22 17:00:00 14.8 20 Nordeste 32 Nordeste 0 -- -- 71
2020-03-22 16:00:00 16.3 14 Norte 35 Norte 0 -- -- 66
2020-03-22 15:00:00 17.4 13 Nordeste 25 Norte 0 -- -- 58
2020-03-22 14:00:00 16.6 11 Nordeste 21 Norte 0 -- -- 59
2020-03-22 13:00:00 17.7 6 Sudoeste 17 Sudoeste 0 -- -- 55
2020-03-22 12:00:00 16 6 Sudoeste 12 Sudoeste 0 -- -- 60
2020-03-22 11:00:00 13 5 Sur 10 Sudoeste 0 -- -- 74
2020-03-22 10:00:00 9.3 3 Sur 5 Sur 0 -- -- 83
2020-03-22 09:00:00 7.1 0 Calma 4 Norte 0 -- -- 93
2020-03-22 08:00:00 4.3 3 Sur 8 Sur 0 -- -- 97
2020-03-22 07:00:00 4.6 3 Sur 4 Sur 0 -- -- 96
2020-03-22 06:00:00 4.9 0 Calma 8 Sudeste 0 -- -- 95
2020-03-22 05:00:00 5.4 3 Sur 6 Sur 0 -- -- 94
2020-03-22 04:00:00 5.6 3 Sur 6 Sur 0 -- -- 91
2020-03-22 03:00:00 6.3 4 Sudeste 9 Sur 0 -- -- 89
2020-03-22 02:00:00 6.7 0 Calma 4 Sudeste 0 -- -- 87
2020-03-22 01:00:00 7.3 0 Calma 5 Nordeste 0 -- -- 83
2020-03-22 00:00:00 7.9 2 Norte 8 Sur 0 -- -- 79
2020-03-21 23:00:00 8.8 2 Norte 6 Nordeste 0 -- -- 74
2020-03-21 22:00:00 10 4 Norte 8 Norte 0 -- -- 67
2020-03-21 21:00:00 11.4 4 Nordeste 10 Sudoeste 0 -- -- 60
2020-03-21 20:00:00 13.3 2 Norte 15 Sur 0 -- -- 54
2020-03-21 19:00:00 16.1 10 Sur 23 Sur 0 -- -- 44
2020-03-21 18:00:00 17.3 15 Sur 24 Sur 0 -- -- 40
2020-03-21 17:00:00 18.1 15 Sur 24 Sur 0 -- -- 38
2020-03-21 16:00:00 18.4 14 Sur 28 Sur 0 -- -- 40
2020-03-21 15:00:00 18.7 12 Sudoeste 31 Sur 0 -- -- 42
2020-03-21 14:00:00 18.1 17 Sur 33 Sur 0 -- -- 39
2020-03-21 13:00:00 17.1 18 Sur 34 Sur 0 -- -- 42
2020-03-21 12:00:00 16.5 15 Sur 42 Sur 0 -- -- 44
2020-03-21 11:00:00 15.5 15 Sudoeste 33 Sur 0 -- -- 43
2020-03-21 10:00:00 13.9 13 Sudoeste 27 Sur 0 -- -- 53
2020-03-21 09:00:00 12.1 11 Sudoeste 32 Sudoeste 0 -- -- 59
2020-03-21 08:00:00 11.2 16 Sudoeste 35 Sudoeste 0 -- -- 62
2020-03-21 07:00:00 11.7 14 Sur 39 Sudoeste 0 -- -- 57
2020-03-21 06:00:00 11.8 12 Sudoeste 35 Sur 0 -- -- 59
2020-03-21 05:00:00 11.8 13 Sur 30 Sur 0 -- -- 63
2020-03-21 04:00:00 12.2 10 Sur 36 Sur 0 -- -- 65
2020-03-21 03:00:00 13 16 Sur 31 Sur 0 -- -- 62
2020-03-21 02:00:00 13.3 15 Sur 25 Sur 0 -- -- 61
2020-03-21 01:00:00 13.2 9 Sur 24 Sur 0 -- -- 62
2020-03-21 00:00:00 13.9 12 Sur 31 Sur 0 -- -- 60
2020-03-20 23:00:00 13.9 12 Sur 27 Sur 0 -- -- 61
2020-03-20 22:00:00 14.1 12 Sur 24 Sudoeste 0 -- -- 61
2020-03-20 21:00:00 13.8 9 Sur 18 Sur 0 -- -- 62
2020-03-20 20:00:00 14.4 10 Sur 24 Sur 0 -- -- 59
2020-03-20 19:00:00 15.4 14 Sur 27 Sur 0 -- -- 56
2020-03-20 18:00:00 16 17 Sur 32 Sur 0 -- -- 52
2020-03-20 17:00:00 16.2 17 Sur 39 Sur 0 -- -- 50
2020-03-20 16:00:00 16.3 20 Sur 42 Sur 0 -- -- 48
2020-03-20 15:00:00 17.2 18 Sudoeste 48 Sur 0 -- -- 49
2020-03-20 14:00:00 15.9 26 Sur 51 Sur 0 -- -- 48
2020-03-20 13:00:00 15.4 28 Sur 46 Sur 0 -- -- 50
2020-03-20 12:00:00 15.8 22 Sudoeste 56 Sur 0 -- -- 46
2020-03-20 11:00:00 15.8 19 Sudoeste 46 Sudoeste 0 -- -- 46
2020-03-20 10:00:00 14.7 12 Sudoeste 35 Sudoeste 0 -- -- 47
2020-03-20 09:00:00 13.2 12 Sudoeste 32 Sudoeste 0 -- -- 51
2020-03-20 08:00:00 12.7 15 Sudoeste 38 Sudoeste 0 -- -- 50
2020-03-20 07:00:00 12.2 15 Sudoeste 35 Sudoeste 0 -- -- 54
2020-03-20 06:00:00 12.4 12 Sudoeste 29 Sur 0 -- -- 55
2020-03-20 05:00:00 13.2 13 Sur 36 Sudoeste 0 -- -- 50
2020-03-20 04:00:00 13.5 18 Sur 33 Sudoeste 0 -- -- 51
2020-03-20 03:00:00 13 9 Sur 19 Sur 0 -- -- 58
2020-03-20 02:00:00 13.5 8 Sudoeste 29 Sur 0 -- -- 59
2020-03-20 01:00:00 14.4 16 Sur 35 Sur 0 -- -- 59
2020-03-20 00:00:00 14.8 11 Sur 31 Sur 0 -- -- 62
2020-03-19 23:00:00 15.2 14 Sur 32 Sur 0 -- -- 61
2020-03-19 22:00:00 15.1 8 Sur 19 Sur 0 -- -- 62
2020-03-19 21:00:00 15.6 12 Sur 23 Sur 0 -- -- 53
2020-03-19 20:00:00 16.3 12 Sur 30 Sur 0 -- -- 43
2020-03-19 19:00:00 17.4 11 Sur 31 Sudeste 0 -- -- 44
2020-03-19 18:00:00 18.7 15 Sur 36 Sur 0 -- -- 41
2020-03-19 17:00:00 19.2 20 Sur 36 Sur 0 -- -- 43
2020-03-19 16:00:00 19.7 13 Sudoeste 31 Sur 0 -- -- 43
2020-03-19 15:00:00 19.8 15 Sur 29 Sur 0 -- -- 45
2020-03-19 14:00:00 19.8 10 Sur 27 Sur 0 -- -- 49
2020-03-19 13:00:00 19.6 15 Sur 30 Sur 0 -- -- 48
2020-03-19 12:00:00 18.8 15 Sur 28 Sudoeste 0 -- -- 49
2020-03-19 11:00:00 18.4 10 Sur 26 Sudoeste 0 -- -- 50
2020-03-19 10:00:00 16.1 11 Sur 26 Sur 0 -- -- 57
2020-03-19 09:00:00 13.3 3 Sur 9 Nordeste 0 -- -- 82
2020-03-19 08:00:00 11.2 2 Nordeste 8 Sudoeste 0 -- -- 80
2020-03-19 07:00:00 10.4 3 Norte 6 Norte 0 -- -- 88
2020-03-19 06:00:00 10.5 2 Norte 6 Norte 0 -- -- 90
2020-03-19 05:00:00 11.6 2 Norte 14 Sudoeste 0 -- -- 85
2020-03-19 04:00:00 10.9 2 Norte 13 Sudeste 0 -- -- 90
2020-03-19 03:00:00 10.7 3 Norte 10 Sur 0 -- -- 90
2020-03-19 02:00:00 10 3 Norte 6 Norte 0 -- -- 93
2020-03-19 01:00:00 10.1 0 Calma 5 Norte 0 -- -- 92
2020-03-19 00:00:00 10.6 3 Norte 5 Norte 0 -- -- 91
2020-03-18 23:00:00 11.1 2 Norte 5 Norte 0 -- -- 90
2020-03-18 22:00:00 11.8 2 Norte 5 Norte 0 -- -- 87
2020-03-18 21:00:00 12.8 2 Norte 6 Norte 0 -- -- 84
2020-03-18 20:00:00 14.2 5 Norte 8 Norte 0 -- -- 79
2020-03-18 19:00:00 16.7 4 Norte 12 Sur 0 -- -- 69
2020-03-18 18:00:00 18.8 0 Calma 5 Norte 0 -- -- 69
2020-03-18 17:00:00 20.3 3 Sur 10 Sur 0 -- -- 56
2020-03-18 16:00:00 20.5 3 Sudoeste 14 Sudoeste 0 -- -- 57
2020-03-18 15:00:00 20.4 3 Sur 9 Sudoeste 0 -- -- 57
2020-03-18 14:00:00 18.8 4 Sudoeste 9 Sudoeste 0 -- -- 65
2020-03-18 13:00:00 16.3 3 Noroeste 11 Sudeste 0 -- -- 77
2020-03-18 12:00:00 14.5 2 Oeste 7 Sudoeste 0 -- -- 84
2020-03-18 11:00:00 11.6 3 Sudoeste 6 Sudoeste 0 -- -- 100
2020-03-18 10:00:00 9.5 3 Sudoeste 4 Sudoeste 0 -- -- 100
2020-03-18 09:00:00 8.5 0 Calma 5 Norte 0 -- -- 100
2020-03-18 08:00:00 8.1 4 Norte 6 Norte 0 -- -- 100
2020-03-18 07:00:00 8.6 2 Nordeste 4 Nordeste 0 -- -- 100
2020-03-18 06:00:00 8.5 4 Norte 5 Norte 0 -- -- 100
2020-03-18 05:00:00 8.9 2 Nordeste 9 Nordeste 0 -- -- 100
2020-03-18 04:00:00 9.4 3 Nordeste 5 Nordeste 0 -- -- 100
2020-03-18 03:00:00 9.6 2 Nordeste 5 Nordeste 0 -- -- 100
2020-03-18 02:00:00 9.7 0 Calma 4 Norte 0 -- -- 100
2020-03-18 01:00:00 9.6 0 Calma 2 Norte 0 -- -- 100
2020-03-18 00:00:00 9.4 0 Calma 4 Norte 0 -- -- 100
2020-03-17 23:00:00 9.5 3 Norte 4 Norte 0 -- -- 100
2020-03-17 22:00:00 9.7 3 Norte 6 Norte 0 -- -- 100
2020-03-17 21:00:00 9.9 3 Nordeste 6 Norte 0 -- -- 100
2020-03-17 20:00:00 10.2 4 Norte 5 Norte 0 -- -- 98
2020-03-17 19:00:00 11.8 0 Calma 3 Sudeste 0 -- -- 95
2020-03-17 18:00:00 12.2 2 Sudoeste 5 Sudoeste 0 -- -- 91
2020-03-17 17:00:00 11.9 3 Sudoeste 6 Sudoeste 0 -- -- 92
2020-03-17 16:00:00 11.8 0 Calma 5 Norte 0 -- -- 93
2020-03-17 15:00:00 11.7 3 Norte 8 Noroeste 0 -- -- 93
2020-03-17 14:00:00 10.7 4 Nordeste 8 Nordeste 0 -- -- 97
2020-03-17 13:00:00 10.5 2 Sudeste 5 Sudeste 0 -- -- 100
2020-03-17 12:00:00 10.3 0 Calma 5 Norte 0 -- -- 100
2020-03-17 11:00:00 9.8 0 Calma 7 Sur 0 -- -- 100
2020-03-17 10:00:00 9.8 0 Calma 4 Norte 0 -- -- 100
2020-03-17 09:00:00 9.3 4 Norte 7 Norte 0 -- -- 100
2020-03-17 08:00:00 8.8 0 Calma 6 Sur 0 -- -- 100
2020-03-17 07:00:00 8.7 2 Este 4 Sudoeste 0.2 -- -- 100
2020-03-17 06:00:00 8.7 0 Calma 6 Sudeste 0 -- -- 100
2020-03-17 05:00:00 8.6 0 Calma 4 Norte 0.2 -- -- 100
2020-03-17 04:00:00 8.6 0 Calma 6 Sudeste 0 -- -- 100
2020-03-17 03:00:00 8.5 3 Sudeste 5 Sur 0.2 -- -- 100
2020-03-17 02:00:00 8.6 3 Sur 5 Sur 0.4 -- -- 100
2020-03-17 01:00:00 8.6 0 Calma 6 Sudeste 0.2 -- -- 100
2020-03-17 00:00:00 8.6 4 Sudeste 6 Sudeste 0.2 -- -- 100
2020-03-16 23:00:00 8.5 0 Calma 6 Sur 0.4 -- -- 100
2020-03-16 22:00:00 8.5 0 Calma 4 Sudeste 0.6 -- -- 100
2020-03-16 21:00:00 8.5 0 Calma 8 Nordeste 0.2 -- -- 100
2020-03-16 20:00:00 8.4 4 Norte 10 Noroeste 0.2 -- -- 100
2020-03-16 19:00:00 8.5 0 Calma 7 Norte 0.4 -- -- 100
2020-03-16 18:00:00 8.6 3 Norte 7 Norte 0.4 -- -- 100
2020-03-16 17:00:00 8.8 3 Noroeste 5 Noroeste 0.6 -- -- 100
2020-03-16 16:00:00 8.8 2 Sur 7 Sudeste 0.4 -- -- 100
2020-03-16 15:00:00 8.2 0 Calma 3 Norte 2 -- -- 100
2020-03-16 14:00:00 8 0 Calma 5 Sudeste 2 -- -- 100
2020-03-16 13:00:00 7.3 2 Sudoeste 5 Sudeste 3 -- -- 100
2020-03-16 12:00:00 7.1 2 Sudoeste 6 Sur 3.8 -- -- 100
2020-03-16 11:00:00 6.6 4 Sur 9 Sur 4 -- -- 100
2020-03-16 10:00:00 6.2 4 Sur 9 Sudeste 4.2 -- -- 100
2020-03-16 09:00:00 6 2 Oeste 6 Sudeste 3 -- -- 100
2020-03-16 08:00:00 5.8 2 Sur 9 Oeste 2.2 -- -- 100
2020-03-16 07:00:00 6 2 Noroeste 11 Noroeste 2.8 -- -- 100
2020-03-16 06:00:00 6.3 7 Noroeste 14 Norte 2.6 -- -- 99
2020-03-16 05:00:00 6.5 8 Noroeste 14 Norte 1.2 -- -- 99
2020-03-16 04:00:00 6.7 0 Calma 12 Norte 3.8 -- -- 99
2020-03-16 03:00:00 7.1 4 Noroeste 11 Norte 1.2 -- -- 100
2020-03-16 02:00:00 7.2 0 Calma 3 Nordeste 0.8 -- -- 100
2020-03-16 01:00:00 7.3 2 Sur 11 Nordeste 2.8 -- -- 99
2020-03-16 00:00:00 7.6 6 Nordeste 21 Norte 3.4 -- -- 96
2020-03-15 23:00:00 8.4 9 Norte 19 Norte 0.4 -- -- 97
2020-03-15 22:00:00 8.8 2 Sudeste 15 Sudeste 0.8 -- -- 98
2020-03-15 21:00:00 9 3 Nordeste 13 Norte 7.8 -- -- 98
2020-03-15 20:00:00 9.4 5 Nordeste 9 Este 4.8 -- -- 96
2020-03-15 19:00:00 10.6 6 Nordeste 22 Nordeste 0.4 -- -- 90
2020-03-15 18:00:00 11.5 13 Nordeste 33 Nordeste 0 -- -- 81
2020-03-15 17:00:00 13.5 19 Nordeste 34 Norte 0 -- -- 78
2020-03-15 16:00:00 16.4 16 Norte 38 Nordeste 0 -- -- 68
2020-03-15 15:00:00 21.6 7 Sur 26 Sudeste 0 -- -- 45
2020-03-15 14:00:00 20.3 17 Sur 29 Sur 0 -- -- 43
2020-03-15 13:00:00 19.5 16 Sur 39 Sudoeste 0 -- -- 41
2020-03-15 12:00:00 18.1 21 Sur 37 Sur 0 -- -- 42
2020-03-15 11:00:00 17.1 15 Sudoeste 34 Sur 0 -- -- 49
2020-03-15 10:00:00 15.3 8 Sudoeste 22 Sudoeste 0 -- -- 54
2020-03-15 09:00:00 11.1 7 Sur 13 Sur 0 -- -- 71
2020-03-15 08:00:00 5.6 5 Sur 10 Sur 0 -- -- 93
2020-03-15 07:00:00 3.4 3 Norte 8 Sur 0 -- -- 100
2020-03-15 06:00:00 2.4 3 Norte 7 Norte 0 -- -- 100
2020-03-15 05:00:00 1.3 0 Calma 6 Sur 0 -- -- 100
2020-03-15 04:00:00 1.9 3 Norte 7 Sur 0 -- -- 100
2020-03-15 03:00:00 2.6 0 Calma 5 Sur 0 -- -- 99
2020-03-15 02:00:00 3 4 Sur 6 Sur 0 -- -- 98
2020-03-15 01:00:00 3.7 4 Sur 6 Sur 0 -- -- 97
2020-03-15 00:00:00 4.6 2 Norte 5 Nordeste 0 -- -- 96
2020-03-14 23:00:00 5.2 0 Calma 4 Noroeste 0 -- -- 93
2020-03-14 22:00:00 6.2 2 Sur 4 Sudeste 0 -- -- 90
2020-03-14 21:00:00 7.7 2 Norte 10 Norte 0 -- -- 84
2020-03-14 20:00:00 9.2 2 Norte 16 Nordeste 0 -- -- 79
2020-03-14 19:00:00 11 9 Nordeste 17 Nordeste 0 -- -- 70
2020-03-14 18:00:00 14.6 5 Noroeste 15 Norte 0 -- -- 58
2020-03-14 17:00:00 15.4 6 Noroeste 24 Sur 0 -- -- 53
2020-03-14 16:00:00 15.1 8 Sudoeste 22 Sudoeste 0 -- -- 54
2020-03-14 15:00:00 14.9 8 Sur 18 Sudoeste 0 -- -- 54
2020-03-14 14:00:00 15 8 Noroeste 20 Norte 0 -- -- 57
2020-03-14 13:00:00 14.1 10 Norte 24 Oeste 0 -- -- 55
2020-03-14 12:00:00 13.2 6 Nordeste 16 Norte 0 -- -- 57
2020-03-14 11:00:00 11.2 4 Sur 9 Sur 0 -- -- 71
2020-03-14 10:00:00 7.7 4 Sur 6 Sur 0 -- -- 83
2020-03-14 09:00:00 3.8 0 Calma 4 Sur 0 -- -- 100
2020-03-14 08:00:00 1.6 0 Calma 5 Nordeste 0 -- -- 100
2020-03-14 07:00:00 1.9 0 Calma 2 Sudeste 0 -- -- 100
2020-03-14 06:00:00 2.3 0 Calma 5 Sudeste 0 -- -- 99
2020-03-14 05:00:00 2.9 0 Calma 5 Sudeste 0 -- -- 98
2020-03-14 04:00:00 3.7 0 Calma 4 Norte 0 -- -- 97
2020-03-14 03:00:00 4.7 0 Calma 6 Sudeste 0 -- -- 95
2020-03-14 02:00:00 6 4 Sudeste 6 Sudeste 0 -- -- 90
2020-03-14 01:00:00 6.5 0 Calma 7 Norte 0 -- -- 90
2020-03-14 00:00:00 6.2 4 Norte 13 Norte 0 -- -- 91
2020-03-13 23:00:00 7.2 5 Norte 13 Nordeste 0 -- -- 87
2020-03-13 22:00:00 8.4 7 Nordeste 15 Nordeste 0 -- -- 82
2020-03-13 21:00:00 8.1 4 Norte 11 Nordeste 0 -- -- 84
2020-03-13 20:00:00 9.1 9 Nordeste 17 Norte 0 -- -- 79
2020-03-13 19:00:00 9.7 9 Nordeste 19 Nordeste 0 -- -- 76
2020-03-13 18:00:00 10.8 9 Nordeste 21 Norte 0 -- -- 72
2020-03-13 17:00:00 12.2 12 Norte 24 Norte 0 -- -- 68
2020-03-13 16:00:00 11.2 10 Norte 27 Norte 0 -- -- 70
2020-03-13 15:00:00 11.6 13 Norte 23 Norte 0 -- -- 70
2020-03-13 14:00:00 11.2 8 Nordeste 23 Norte 0 -- -- 72
2020-03-13 13:00:00 10.8 10 Norte 21 Norte 0 -- -- 78
2020-03-13 12:00:00 10.5 8 Norte 15 Norte 0 -- -- 81
2020-03-13 11:00:00 9.8 8 Norte 15 Norte 0 -- -- 86
2020-03-13 10:00:00 9.5 2 Norte 4 Nordeste 0 -- -- 93
2020-03-13 09:00:00 8.5 3 Norte 7 Nordeste 0 -- -- 100
2020-03-13 08:00:00 8.1 0 Calma 4 Nordeste 0 -- -- 99
2020-03-13 07:00:00 8.2 3 Nordeste 5 Nordeste 0 -- -- 98
2020-03-13 06:00:00 8.3 0 Calma 3 Noroeste 0 -- -- 96
2020-03-13 05:00:00 8.6 0 Calma 6 Nordeste 0 -- -- 95
2020-03-13 04:00:00 8.8 4 Este 9 Este 0 -- -- 91
2020-03-13 03:00:00 8.9 0 Calma 9 Sur 0 -- -- 92
2020-03-13 02:00:00 9.5 2 Este 11 Norte 0 -- -- 96
2020-03-13 01:00:00 9.4 6 Norte 13 Norte 0 -- -- 97
2020-03-13 00:00:00 9.6 8 Norte 13 Norte 0 -- -- 97
2020-03-12 23:00:00 9.8 8 Norte 18 Norte 0 -- -- 96
2020-03-12 22:00:00 10.3 7 Norte 15 Norte 0.2 -- -- 98
2020-03-12 21:00:00 10.7 5 Norte 12 Norte 0 -- -- 96
2020-03-12 20:00:00 11.5 5 Norte 11 Norte 0 -- -- 88
2020-03-12 19:00:00 11.8 4 Norte 14 Norte 0 -- -- 86
2020-03-12 18:00:00 12.1 4 Norte 17 Norte 0 -- -- 86
2020-03-12 17:00:00 12.5 6 Norte 22 Nordeste 0 -- -- 85
2020-03-12 16:00:00 13 10 Norte 18 Nordeste 0 -- -- 85
2020-03-12 15:00:00 12.7 5 Norte 19 Nordeste 0 -- -- 89
2020-03-12 14:00:00 12.6 10 Nordeste 18 Nordeste 0 -- -- 89
2020-03-12 13:00:00 13.2 3 Sudeste 9 Norte 0 -- -- 89
2020-03-12 12:00:00 12.3 4 Norte 10 Norte 0 -- -- 93
2020-03-12 11:00:00 12 3 Noroeste 5 Sudoeste 0 -- -- 94
2020-03-12 10:00:00 11.1 3 Sur 5 Sur 0 -- -- 99
2020-03-12 09:00:00 10.5 0 Calma 3 Sudoeste 0 -- -- 100
2020-03-12 08:00:00 10.3 0 Calma 5 Sudeste 0 -- -- 99
2020-03-12 07:00:00 10.4 3 Sudeste 6 Sudeste 0 -- -- 98
2020-03-12 06:00:00 10.5 3 Norte 10 Nordeste 0 -- -- 96
2020-03-12 05:00:00 10.4 4 Nordeste 10 Nordeste 0 -- -- 98
2020-03-12 04:00:00 9.9 3 Norte 6 Nordeste 0 -- -- 100
2020-03-12 03:00:00 9.8 0 Calma 2 Norte 0 -- -- 98
2020-03-12 02:00:00 10.1 0 Calma 4 Noroeste 0 -- -- 97
2020-03-12 01:00:00 10.6 3 Norte 3 Norte 0 -- -- 96
2020-03-12 00:00:00 11.3 2 Nordeste 3 Norte 0 -- -- 95
2020-03-11 23:00:00 12.1 0 Calma 5 Nordeste 0 -- -- 92
2020-03-11 22:00:00 12.8 0 Calma 3 Norte 0 -- -- 90
2020-03-11 21:00:00 13.8 0 Calma 4 Norte 0 -- -- 86
2020-03-11 20:00:00 15.6 2 Sur 5 Nordeste 0 -- -- 79
2020-03-11 19:00:00 18 0 Calma 5 Noroeste 0 -- -- 71
2020-03-11 18:00:00 21.1 3 Sudoeste 17 Norte 0 -- -- 61
2020-03-11 17:00:00 22.9 5 Norte 17 Sudoeste 0 -- -- 51
2020-03-11 16:00:00 22.9 10 Sudoeste 19 Sudoeste 0 -- -- 46
2020-03-11 15:00:00 22.7 8 Sur 14 Sudoeste 0 -- -- 49
2020-03-11 14:00:00 21.7 4 Sudoeste 14 Sur 0 -- -- 56
2020-03-11 13:00:00 19.1 6 Sur 10 Sudoeste 0 -- -- 64
2020-03-11 12:00:00 15.8 5 Sur 10 Sudoeste 0 -- -- 75
2020-03-11 11:00:00 10.5 3 Sur 6 Sur 0 -- -- 100
2020-03-11 10:00:00 6.5 2 Oeste 4 Sudoeste 0 -- -- 100
2020-03-11 09:00:00 5.3 0 Calma 3 Este 0 -- -- 100
2020-03-11 08:00:00 5 0 Calma 4 Norte 0 -- -- 100
2020-03-11 07:00:00 5.3 0 Calma 6 Sudeste 0 -- -- 100
2020-03-11 06:00:00 5.5 0 Calma 5 Norte 0 -- -- 100
2020-03-11 05:00:00 5.6 0 Calma 4 Nordeste 0 -- -- 100
2020-03-11 04:00:00 5.3 4 Sur 6 Sur 0 -- -- 100
2020-03-11 03:00:00 5.6 0 Calma 4 Sudeste 0 -- -- 100
2020-03-11 02:00:00 6.3 3 Norte 4 Norte 0 -- -- 100
2020-03-11 01:00:00 6.6 0 Calma 5 Norte 0 -- -- 100
2020-03-11 00:00:00 6.9 3 Norte 9 Sur 0 -- -- 99
2020-03-10 23:00:00 7.6 4 Norte 8 Noroeste 0 -- -- 99
2020-03-10 22:00:00 8.2 0 Calma 3 Sudeste 0 -- -- 97
2020-03-10 21:00:00 9 3 Nordeste 9 Norte 0 -- -- 94
2020-03-10 20:00:00 10.3 3 Nordeste 7 Norte 0 -- -- 89
2020-03-10 19:00:00 12 4 Norte 17 Norte 0 -- -- 83
2020-03-10 18:00:00 13.7 13 Norte 26 Norte 0 -- -- 76
2020-03-10 17:00:00 15.3 14 Norte 28 Norte 0 -- -- 72
2020-03-10 16:00:00 16.6 16 Norte 26 Nordeste 0 -- -- 65
2020-03-10 15:00:00 18.2 6 Oeste 15 Sudoeste 0 -- -- 61
2020-03-10 14:00:00 16.7 6 Sudoeste 12 Sur 0 -- -- 66
2020-03-10 13:00:00 14.2 4 Sudoeste 10 Sudeste 0 -- -- 77
2020-03-10 12:00:00 11.2 4 Sudeste 8 Sur 0 -- -- 90
2020-03-10 11:00:00 8.5 3 Oeste 5 Sudoeste 0 -- -- 100
2020-03-10 10:00:00 5.9 2 Noroeste 4 Sur 0 -- -- 100
2020-03-10 09:00:00 5 2 Norte 4 Norte 0 -- -- 100
2020-03-10 08:00:00 4.3 2 Sur 4 Sur 0 -- -- 100
2020-03-10 07:00:00 4.4 0 Calma 3 Nordeste 0 -- -- 100
2020-03-10 06:00:00 4.6 0 Calma 3 Nordeste 0 -- -- 100
2020-03-10 05:00:00 4.9 0 Calma 5 Sur 0 -- -- 100
2020-03-10 04:00:00 5 0 Calma 4 Norte 0 -- -- 100
2020-03-10 03:00:00 5.3 0 Calma 3 Norte 0 -- -- 100
2020-03-10 02:00:00 5.6 2 Sudeste 3 Sur 0 -- -- 100
2020-03-10 01:00:00 5.7 0 Calma 6 Nordeste 0 -- -- 100
2020-03-10 00:00:00 6.3 0 Calma 4 Norte 0 -- -- 100